Main page
Satellite images 15-day forecastsClimateMarine weather Cyclones Lightning AirportsFAQ Newsletter About
Weather : Europe Africa North America South America Asia Australia-Oceania Others
Languages Contact

Singapore, Singapore

Military airbase Paya Lebar

latitude: 01-22N, longitude: 103-55E, elevation: 18 m


METAR: WSAP 231500Z 16005KT 9999 FEW018 BKN300 29/25 Q1011
short-TAF: out of date (50084 hours)
long-TAF: WSAP 231700Z 2318/2424 17007KT 9999 FEW015 SCT020

Time: 04:07 (20:07 UTC)

Current weather observation

The report was made 5 hours and 7 minutes ago, at 15:00 UTC  
Wind 05 kt from the South/Southeast
Temperature 29°C
Humidity 79%
Pressure 1011 hPa
Visibility 10 km or more
Few clouds at a height of 1800 ft
Broken clouds at a height of 30000 ft

Change units

Forecast

The report was made 2 hours and 57 minutes ago, at 17:10 UTC  
Forecast valid from 23 at 18 UTC to 24 at 24 UTC
Wind 07 kt from the South
Visibility 10 km or more
Few clouds at a height of 1500 ft
Scattered clouds at a height of 2000 ft
The information on this site is subject to a disclaimer
Weather : Europe Africa North America South America Asia Australia-Oceania Others
Satellite images 15-day forecastsClimateMarine weather Cyclones Lightning AirportsFAQ Languages Contact Newsletter About